sensor_id;sensor_type;location;lat;lon;timestamp;P1;durP1;ratioP1;P2;durP2;ratioP2
60582;SDS011;46415;47.536;19.066;2022-12-18T00:00:04;11.45;;;5.95;;
60582;SDS011;46415;47.536;19.066;2022-12-18T00:03:14;13.75;;;6.90;;
60582;SDS011;46415;47.536;19.066;2022-12-18T00:06:18;7.28;;;5.90;;
60582;SDS011;46415;47.536;19.066;2022-12-18T00:09:21;9.68;;;6.43;;
60582;SDS011;46415;47.536;19.066;2022-12-18T00:12:26;9.35;;;7.75;;
60582;SDS011;46415;47.536;19.066;2022-12-18T00:15:33;13.95;;;7.03;;
60582;SDS011;46415;47.536;19.066;2022-12-18T00:18:37;13.23;;;6.87;;
60582;SDS011;46415;47.536;19.066;2022-12-18T00:21:40;11.20;;;5.90;;
60582;SDS011;46415;47.536;19.066;2022-12-18T00:24:43;9.95;;;4.68;;
60582;SDS011;46415;47.536;19.066;2022-12-18T00:27:45;10.63;;;4.62;;
60582;SDS011;46415;47.536;19.066;2022-12-18T00:30:48;13.23;;;11.20;;
60582;SDS011;46415;47.536;19.066;2022-12-18T00:33:54;7.15;;;4.75;;
60582;SDS011;46415;47.536;19.066;2022-12-18T00:36:58;8.88;;;6.00;;
60582;SDS011;46415;47.536;19.066;2022-12-18T00:40:00;11.25;;;6.32;;
60582;SDS011;46415;47.536;19.066;2022-12-18T00:43:03;10.13;;;6.18;;
60582;SDS011;46415;47.536;19.066;2022-12-18T00:46:06;10.10;;;5.72;;
60582;SDS011;46415;47.536;19.066;2022-12-18T00:49:09;16.42;;;7.53;;
60582;SDS011;46415;47.536;19.066;2022-12-18T00:52:16;14.10;;;6.87;;
60582;SDS011;46415;47.536;19.066;2022-12-18T00:55:19;6.50;;;5.03;;
60582;SDS011;46415;47.536;19.066;2022-12-18T00:58:21;13.38;;;6.90;;
60582;SDS011;46415;47.536;19.066;2022-12-18T01:01:24;10.77;;;5.55;;
60582;SDS011;46415;47.536;19.066;2022-12-18T01:04:27;12.82;;;5.45;;
60582;SDS011;46415;47.536;19.066;2022-12-18T01:07:34;8.30;;;5.62;;
60582;SDS011;46415;47.536;19.066;2022-12-18T01:10:40;11.23;;;6.28;;
60582;SDS011;46415;47.536;19.066;2022-12-18T01:13:43;11.07;;;5.43;;
60582;SDS011;46415;47.536;19.066;2022-12-18T01:16:46;10.98;;;6.32;;
60582;SDS011;46415;47.536;19.066;2022-12-18T01:19:49;9.13;;;6.20;;
60582;SDS011;46415;47.536;19.066;2022-12-18T01:22:51;9.38;;;5.75;;
60582;SDS011;46415;47.536;19.066;2022-12-18T01:25:54;15.48;;;7.30;;
60582;SDS011;46415;47.536;19.066;2022-12-18T01:28:58;7.47;;;6.47;;
60582;SDS011;46415;47.536;19.066;2022-12-18T01:32:00;9.88;;;5.93;;
60582;SDS011;46415;47.536;19.066;2022-12-18T01:35:04;7.70;;;6.90;;
60582;SDS011;46415;47.536;19.066;2022-12-18T01:38:08;10.35;;;4.68;;
60582;SDS011;46415;47.536;19.066;2022-12-18T01:41:10;9.25;;;5.57;;
60582;SDS011;46415;47.536;19.066;2022-12-18T01:47:57;7.15;;;5.25;;
60582;SDS011;46415;47.536;19.066;2022-12-18T01:51:04;8.30;;;6.43;;
60582;SDS011;46415;47.536;19.066;2022-12-18T01:54:06;14.02;;;6.62;;
60582;SDS011;46415;47.536;19.066;2022-12-18T01:57:09;7.32;;;5.18;;
60582;SDS011;46415;47.536;19.066;2022-12-18T02:00:14;8.70;;;6.28;;
60582;SDS011;46415;47.536;19.066;2022-12-18T02:03:21;14.13;;;6.18;;
60582;SDS011;46415;47.536;19.066;2022-12-18T02:06:33;10.60;;;7.05;;
60582;SDS011;46415;47.536;19.066;2022-12-18T02:13:20;8.60;;;6.72;;
60582;SDS011;46415;47.536;19.066;2022-12-18T02:23:31;6.75;;;5.68;;
60582;SDS011;46415;47.536;19.066;2022-12-18T02:26:29;8.20;;;5.03;;
60582;SDS011;46415;47.536;19.066;2022-12-18T02:29:44;8.82;;;5.60;;
60582;SDS011;46415;47.536;19.066;2022-12-18T02:32:59;8.35;;;5.90;;
60582;SDS011;46415;47.536;19.066;2022-12-18T02:36:07;12.30;;;5.90;;
60582;SDS011;46415;47.536;19.066;2022-12-18T02:39:13;5.65;;;4.87;;
60582;SDS011;46415;47.536;19.066;2022-12-18T02:42:18;13.82;;;6.25;;
60582;SDS011;46415;47.536;19.066;2022-12-18T02:45:22;9.27;;;7.45;;
60582;SDS011;46415;47.536;19.066;2022-12-18T02:48:30;13.05;;;7.47;;
60582;SDS011;46415;47.536;19.066;2022-12-18T02:51:38;13.07;;;6.80;;
60582;SDS011;46415;47.536;19.066;2022-12-18T02:54:55;13.43;;;7.28;;
60582;SDS011;46415;47.536;19.066;2022-12-18T02:58:15;21.12;;;5.93;;
60582;SDS011;46415;47.536;19.066;2022-12-18T03:01:28;22.83;;;7.30;;
60582;SDS011;46415;47.536;19.066;2022-12-18T03:04:39;11.50;;;5.35;;
60582;SDS011;46415;47.536;19.066;2022-12-18T03:07:53;10.93;;;8.55;;
60582;SDS011;46415;47.536;19.066;2022-12-18T03:11:03;8.20;;;4.87;;
60582;SDS011;46415;47.536;19.066;2022-12-18T03:14:08;10.50;;;6.53;;
60582;SDS011;46415;47.536;19.066;2022-12-18T03:17:16;11.85;;;6.32;;
60582;SDS011;46415;47.536;19.066;2022-12-18T03:20:22;10.53;;;9.00;;
60582;SDS011;46415;47.536;19.066;2022-12-18T03:23:29;10.48;;;6.30;;
60582;SDS011;46415;47.536;19.066;2022-12-18T03:26:37;7.53;;;6.57;;
60582;SDS011;46415;47.536;19.066;2022-12-18T03:29:59;9.82;;;6.12;;
60582;SDS011;46415;47.536;19.066;2022-12-18T03:33:17;12.10;;;6.07;;
60582;SDS011;46415;47.536;19.066;2022-12-18T03:36:23;12.90;;;6.82;;
60582;SDS011;46415;47.536;19.066;2022-12-18T03:39:26;8.65;;;7.12;;
60582;SDS011;46415;47.536;19.066;2022-12-18T03:45:54;8.48;;;6.40;;
60582;SDS011;46415;47.536;19.066;2022-12-18T03:49:09;11.77;;;7.07;;
60582;SDS011;46415;47.536;19.066;2022-12-18T03:52:36;6.60;;;5.20;;
60582;SDS011;46415;47.536;19.066;2022-12-18T03:56:00;5.80;;;5.03;;
60582;SDS011;46415;47.536;19.066;2022-12-18T03:59:05;11.82;;;5.32;;
60582;SDS011;46415;47.536;19.066;2022-12-18T04:02:12;10.20;;;7.07;;
60582;SDS011;46415;47.536;19.066;2022-12-18T04:05:16;11.52;;;6.97;;
60582;SDS011;46415;47.536;19.066;2022-12-18T04:08:20;9.45;;;6.97;;
60582;SDS011;46415;47.536;19.066;2022-12-18T04:11:25;15.75;;;6.82;;
60582;SDS011;46415;47.536;19.066;2022-12-18T04:14:28;12.82;;;6.43;;
60582;SDS011;46415;47.536;19.066;2022-12-18T04:17:31;8.32;;;7.40;;
60582;SDS011;46415;47.536;19.066;2022-12-18T04:20:34;10.55;;;6.18;;
60582;SDS011;46415;47.536;19.066;2022-12-18T04:23:37;11.82;;;6.05;;
60582;SDS011;46415;47.536;19.066;2022-12-18T04:26:41;8.40;;;6.78;;
60582;SDS011;46415;47.536;19.066;2022-12-18T04:29:44;6.03;;;5.22;;
60582;SDS011;46415;47.536;19.066;2022-12-18T04:32:47;13.32;;;7.28;;
60582;SDS011;46415;47.536;19.066;2022-12-18T04:35:54;11.35;;;4.90;;
60582;SDS011;46415;47.536;19.066;2022-12-18T04:38:57;13.65;;;7.00;;
60582;SDS011;46415;47.536;19.066;2022-12-18T04:42:00;10.10;;;6.12;;
60582;SDS011;46415;47.536;19.066;2022-12-18T04:45:03;8.70;;;5.40;;
60582;SDS011;46415;47.536;19.066;2022-12-18T04:48:06;8.75;;;7.85;;
60582;SDS011;46415;47.536;19.066;2022-12-18T04:51:08;9.35;;;6.05;;
60582;SDS011;46415;47.536;19.066;2022-12-18T04:54:11;8.70;;;6.03;;
60582;SDS011;46415;47.536;19.066;2022-12-18T04:57:13;13.80;;;5.60;;
60582;SDS011;46415;47.536;19.066;2022-12-18T05:00:16;8.82;;;7.65;;
60582;SDS011;46415;47.536;19.066;2022-12-18T05:03:19;19.37;;;7.87;;
60582;SDS011;46415;47.536;19.066;2022-12-18T05:06:22;10.13;;;7.18;;
60582;SDS011;46415;47.536;19.066;2022-12-18T05:09:24;10.48;;;5.95;;
60582;SDS011;46415;47.536;19.066;2022-12-18T05:12:27;11.63;;;7.07;;
60582;SDS011;46415;47.536;19.066;2022-12-18T05:15:30;9.32;;;5.70;;
60582;SDS011;46415;47.536;19.066;2022-12-18T05:18:34;7.97;;;7.03;;
60582;SDS011;46415;47.536;19.066;2022-12-18T05:21:37;9.07;;;7.05;;
60582;SDS011;46415;47.536;19.066;2022-12-18T05:24:39;7.37;;;5.80;;
60582;SDS011;46415;47.536;19.066;2022-12-18T05:27:42;12.20;;;6.18;;
60582;SDS011;46415;47.536;19.066;2022-12-18T05:30:48;14.70;;;8.43;;
60582;SDS011;46415;47.536;19.066;2022-12-18T05:33:55;8.32;;;6.03;;
60582;SDS011;46415;47.536;19.066;2022-12-18T05:36:58;13.52;;;7.30;;
60582;SDS011;46415;47.536;19.066;2022-12-18T05:40:02;10.55;;;6.65;;
60582;SDS011;46415;47.536;19.066;2022-12-18T05:43:06;8.95;;;6.12;;
60582;SDS011;46415;47.536;19.066;2022-12-18T05:46:13;13.20;;;8.00;;
60582;SDS011;46415;47.536;19.066;2022-12-18T05:49:18;12.63;;;8.30;;
60582;SDS011;46415;47.536;19.066;2022-12-18T05:52:20;17.40;;;9.32;;
60582;SDS011;46415;47.536;19.066;2022-12-18T05:55:23;10.23;;;6.37;;
60582;SDS011;46415;47.536;19.066;2022-12-18T05:58:26;18.33;;;7.68;;
60582;SDS011;46415;47.536;19.066;2022-12-18T06:01:28;17.83;;;8.38;;
60582;SDS011;46415;47.536;19.066;2022-12-18T06:04:32;8.30;;;5.25;;
60582;SDS011;46415;47.536;19.066;2022-12-18T06:07:34;14.27;;;7.37;;
60582;SDS011;46415;47.536;19.066;2022-12-18T06:10:39;14.93;;;7.30;;
60582;SDS011;46415;47.536;19.066;2022-12-18T06:13:42;9.95;;;6.95;;
60582;SDS011;46415;47.536;19.066;2022-12-18T06:16:45;8.65;;;5.97;;
60582;SDS011;46415;47.536;19.066;2022-12-18T06:19:47;7.12;;;5.60;;
60582;SDS011;46415;47.536;19.066;2022-12-18T06:22:50;11.10;;;7.20;;
60582;SDS011;46415;47.536;19.066;2022-12-18T06:25:53;12.75;;;6.85;;
60582;SDS011;46415;47.536;19.066;2022-12-18T06:28:56;6.35;;;5.32;;
60582;SDS011;46415;47.536;19.066;2022-12-18T06:31:59;10.38;;;6.95;;
60582;SDS011;46415;47.536;19.066;2022-12-18T06:35:02;7.25;;;5.22;;
60582;SDS011;46415;47.536;19.066;2022-12-18T06:38:06;7.25;;;5.50;;
60582;SDS011;46415;47.536;19.066;2022-12-18T06:41:10;9.57;;;7.60;;
60582;SDS011;46415;47.536;19.066;2022-12-18T06:44:15;16.10;;;8.77;;
60582;SDS011;46415;47.536;19.066;2022-12-18T06:47:18;18.35;;;8.77;;
60582;SDS011;46415;47.536;19.066;2022-12-18T06:50:20;8.80;;;7.37;;
60582;SDS011;46415;47.536;19.066;2022-12-18T06:53:25;9.50;;;6.55;;
60582;SDS011;46415;47.536;19.066;2022-12-18T06:56:27;9.30;;;6.18;;
60582;SDS011;46415;47.536;19.066;2022-12-18T06:59:30;18.08;;;8.35;;
60582;SDS011;46415;47.536;19.066;2022-12-18T07:02:33;11.60;;;7.28;;
60582;SDS011;46415;47.536;19.066;2022-12-18T07:05:40;11.05;;;7.82;;
60582;SDS011;46415;47.536;19.066;2022-12-18T07:08:43;6.18;;;5.62;;
60582;SDS011;46415;47.536;19.066;2022-12-18T07:11:46;13.52;;;6.78;;
60582;SDS011;46415;47.536;19.066;2022-12-18T07:14:49;5.50;;;4.93;;
60582;SDS011;46415;47.536;19.066;2022-12-18T07:17:52;14.05;;;6.97;;
60582;SDS011;46415;47.536;19.066;2022-12-18T07:20:54;7.87;;;5.72;;
60582;SDS011;46415;47.536;19.066;2022-12-18T07:23:57;13.80;;;5.70;;
60582;SDS011;46415;47.536;19.066;2022-12-18T07:27:00;8.95;;;7.03;;
60582;SDS011;46415;47.536;19.066;2022-12-18T07:30:03;16.80;;;8.63;;
60582;SDS011;46415;47.536;19.066;2022-12-18T07:33:06;13.07;;;6.62;;
60582;SDS011;46415;47.536;19.066;2022-12-18T07:36:09;10.93;;;6.03;;
60582;SDS011;46415;47.536;19.066;2022-12-18T07:39:13;10.65;;;6.93;;
60582;SDS011;46415;47.536;19.066;2022-12-18T07:42:16;14.27;;;7.53;;
60582;SDS011;46415;47.536;19.066;2022-12-18T07:45:33;12.20;;;8.50;;
60582;SDS011;46415;47.536;19.066;2022-12-18T07:48:36;10.23;;;6.62;;
60582;SDS011;46415;47.536;19.066;2022-12-18T07:51:39;12.73;;;6.70;;
60582;SDS011;46415;47.536;19.066;2022-12-18T07:54:42;25.37;;;10.13;;
60582;SDS011;46415;47.536;19.066;2022-12-18T07:57:44;12.85;;;8.15;;
60582;SDS011;46415;47.536;19.066;2022-12-18T08:01:01;13.90;;;6.65;;
60582;SDS011;46415;47.536;19.066;2022-12-18T08:04:07;14.35;;;8.18;;
60582;SDS011;46415;47.536;19.066;2022-12-18T08:07:10;13.85;;;7.55;;
60582;SDS011;46415;47.536;19.066;2022-12-18T08:10:13;16.15;;;8.25;;
60582;SDS011;46415;47.536;19.066;2022-12-18T08:13:15;8.40;;;6.80;;
60582;SDS011;46415;47.536;19.066;2022-12-18T08:16:18;12.77;;;8.10;;
60582;SDS011;46415;47.536;19.066;2022-12-18T08:19:22;16.00;;;7.62;;
60582;SDS011;46415;47.536;19.066;2022-12-18T08:22:24;10.32;;;7.03;;
60582;SDS011;46415;47.536;19.066;2022-12-18T08:25:27;16.92;;;9.63;;
60582;SDS011;46415;47.536;19.066;2022-12-18T08:28:30;14.55;;;10.13;;
60582;SDS011;46415;47.536;19.066;2022-12-18T08:31:32;19.83;;;8.30;;
60582;SDS011;46415;47.536;19.066;2022-12-18T08:34:35;14.32;;;6.10;;
60582;SDS011;46415;47.536;19.066;2022-12-18T08:37:38;11.50;;;8.18;;
60582;SDS011;46415;47.536;19.066;2022-12-18T08:40:41;14.07;;;8.40;;
60582;SDS011;46415;47.536;19.066;2022-12-18T08:43:44;12.98;;;7.93;;
60582;SDS011;46415;47.536;19.066;2022-12-18T08:47:06;17.85;;;7.95;;
60582;SDS011;46415;47.536;19.066;2022-12-18T08:50:09;17.58;;;9.68;;
60582;SDS011;46415;47.536;19.066;2022-12-18T08:53:13;20.35;;;9.95;;
60582;SDS011;46415;47.536;19.066;2022-12-18T08:56:16;14.15;;;7.57;;
60582;SDS011;46415;47.536;19.066;2022-12-18T08:59:19;13.15;;;6.93;;
60582;SDS011;46415;47.536;19.066;2022-12-18T09:02:22;16.65;;;7.95;;
60582;SDS011;46415;47.536;19.066;2022-12-18T09:05:25;19.35;;;9.73;;
60582;SDS011;46415;47.536;19.066;2022-12-18T09:08:29;15.60;;;8.82;;
60582;SDS011;46415;47.536;19.066;2022-12-18T09:11:32;16.92;;;9.07;;
60582;SDS011;46415;47.536;19.066;2022-12-18T09:14:35;17.30;;;8.43;;
60582;SDS011;46415;47.536;19.066;2022-12-18T09:17:38;18.52;;;9.15;;
60582;SDS011;46415;47.536;19.066;2022-12-18T09:20:41;21.70;;;10.80;;
60582;SDS011;46415;47.536;19.066;2022-12-18T09:23:48;18.30;;;9.48;;
60582;SDS011;46415;47.536;19.066;2022-12-18T09:26:54;24.85;;;10.30;;
60582;SDS011;46415;47.536;19.066;2022-12-18T09:29:59;18.95;;;9.93;;
60582;SDS011;46415;47.536;19.066;2022-12-18T09:33:02;18.17;;;10.90;;
60582;SDS011;46415;47.536;19.066;2022-12-18T09:36:06;16.50;;;9.48;;
60582;SDS011;46415;47.536;19.066;2022-12-18T09:39:09;22.87;;;11.10;;
60582;SDS011;46415;47.536;19.066;2022-12-18T09:42:15;27.83;;;11.40;;
60582;SDS011;46415;47.536;19.066;2022-12-18T09:45:22;21.42;;;10.65;;
60582;SDS011;46415;47.536;19.066;2022-12-18T09:48:36;24.30;;;11.18;;
60582;SDS011;46415;47.536;19.066;2022-12-18T09:54:56;17.65;;;7.90;;
60582;SDS011;46415;47.536;19.066;2022-12-18T09:58:02;11.73;;;8.27;;
60582;SDS011;46415;47.536;19.066;2022-12-18T10:01:16;13.52;;;8.40;;
60582;SDS011;46415;47.536;19.066;2022-12-18T10:04:25;17.23;;;8.80;;
60582;SDS011;46415;47.536;19.066;2022-12-18T10:11:25;16.92;;;8.70;;
60582;SDS011;46415;47.536;19.066;2022-12-18T10:18:03;18.60;;;10.13;;
60582;SDS011;46415;47.536;19.066;2022-12-18T10:21:10;24.52;;;10.18;;
60582;SDS011;46415;47.536;19.066;2022-12-18T10:24:23;22.17;;;10.57;;
60582;SDS011;46415;47.536;19.066;2022-12-18T10:27:34;30.00;;;10.15;;
60582;SDS011;46415;47.536;19.066;2022-12-18T10:30:38;21.10;;;9.07;;
60582;SDS011;46415;47.536;19.066;2022-12-18T10:33:42;18.83;;;8.00;;
60582;SDS011;46415;47.536;19.066;2022-12-18T10:36:46;17.40;;;8.77;;
60582;SDS011;46415;47.536;19.066;2022-12-18T10:43:12;22.17;;;11.80;;
60582;SDS011;46415;47.536;19.066;2022-12-18T10:46:17;14.40;;;7.80;;
60582;SDS011;46415;47.536;19.066;2022-12-18T10:49:23;21.70;;;10.45;;
60582;SDS011;46415;47.536;19.066;2022-12-18T10:52:28;17.55;;;9.57;;
60582;SDS011;46415;47.536;19.066;2022-12-18T10:55:33;19.80;;;8.57;;
60582;SDS011;46415;47.536;19.066;2022-12-18T10:58:39;23.48;;;10.20;;
60582;SDS011;46415;47.536;19.066;2022-12-18T11:01:49;22.48;;;11.35;;
60582;SDS011;46415;47.536;19.066;2022-12-18T11:04:59;27.30;;;11.85;;
60582;SDS011;46415;47.536;19.066;2022-12-18T11:08:03;20.35;;;9.27;;
60582;SDS011;46415;47.536;19.066;2022-12-18T11:11:07;17.27;;;8.75;;
60582;SDS011;46415;47.536;19.066;2022-12-18T11:14:42;19.83;;;10.00;;
60582;SDS011;46415;47.536;19.066;2022-12-18T11:17:49;15.35;;;8.40;;
60582;SDS011;46415;47.536;19.066;2022-12-18T11:20:55;15.60;;;7.62;;
60582;SDS011;46415;47.536;19.066;2022-12-18T11:24:01;11.23;;;7.12;;
60582;SDS011;46415;47.536;19.066;2022-12-18T11:27:05;23.20;;;10.45;;
60582;SDS011;46415;47.536;19.066;2022-12-18T11:33:25;25.48;;;11.20;;
60582;SDS011;46415;47.536;19.066;2022-12-18T11:36:29;20.67;;;8.60;;
60582;SDS011;46415;47.536;19.066;2022-12-18T11:39:37;20.58;;;11.23;;
60582;SDS011;46415;47.536;19.066;2022-12-18T11:42:48;22.92;;;10.52;;
60582;SDS011;46415;47.536;19.066;2022-12-18T11:46:02;22.60;;;10.07;;
60582;SDS011;46415;47.536;19.066;2022-12-18T11:52:24;15.07;;;8.38;;
60582;SDS011;46415;47.536;19.066;2022-12-18T11:58:51;13.05;;;7.82;;
60582;SDS011;46415;47.536;19.066;2022-12-18T12:02:04;13.18;;;7.10;;
60582;SDS011;46415;47.536;19.066;2022-12-18T12:18:45;16.92;;;8.85;;
60582;SDS011;46415;47.536;19.066;2022-12-18T12:21:55;16.37;;;9.50;;
60582;SDS011;46415;47.536;19.066;2022-12-18T12:25:41;21.33;;;10.85;;
60582;SDS011;46415;47.536;19.066;2022-12-18T12:31:51;16.20;;;8.13;;
60582;SDS011;46415;47.536;19.066;2022-12-18T12:38:36;13.85;;;8.60;;
60582;SDS011;46415;47.536;19.066;2022-12-18T12:41:53;20.20;;;9.68;;
60582;SDS011;46415;47.536;19.066;2022-12-18T12:45:20;18.40;;;9.90;;
60582;SDS011;46415;47.536;19.066;2022-12-18T12:48:40;18.75;;;8.40;;
60582;SDS011;46415;47.536;19.066;2022-12-18T12:52:06;24.52;;;10.48;;
60582;SDS011;46415;47.536;19.066;2022-12-18T12:55:19;17.60;;;9.20;;
60582;SDS011;46415;47.536;19.066;2022-12-18T12:58:31;16.20;;;8.18;;
60582;SDS011;46415;47.536;19.066;2022-12-18T13:01:54;19.95;;;10.68;;
60582;SDS011;46415;47.536;19.066;2022-12-18T13:12:02;17.85;;;9.10;;
60582;SDS011;46415;47.536;19.066;2022-12-18T13:18:47;19.37;;;8.95;;
60582;SDS011;46415;47.536;19.066;2022-12-18T13:21:55;15.55;;;8.50;;
60582;SDS011;46415;47.536;19.066;2022-12-18T13:24:59;15.07;;;8.32;;
60582;SDS011;46415;47.536;19.066;2022-12-18T13:28:06;19.17;;;8.95;;
60582;SDS011;46415;47.536;19.066;2022-12-18T13:31:11;18.23;;;8.85;;
60582;SDS011;46415;47.536;19.066;2022-12-18T13:43:53;18.27;;;7.87;;
60582;SDS011;46415;47.536;19.066;2022-12-18T13:47:00;16.77;;;9.10;;
60582;SDS011;46415;47.536;19.066;2022-12-18T13:50:22;14.80;;;7.57;;
60582;SDS011;46415;47.536;19.066;2022-12-18T13:53:38;19.00;;;7.85;;
60582;SDS011;46415;47.536;19.066;2022-12-18T13:56:47;16.15;;;7.82;;
60582;SDS011;46415;47.536;19.066;2022-12-18T13:59:51;14.93;;;7.93;;
60582;SDS011;46415;47.536;19.066;2022-12-18T14:02:54;16.70;;;8.43;;
60582;SDS011;46415;47.536;19.066;2022-12-18T14:06:02;14.15;;;7.70;;
60582;SDS011;46415;47.536;19.066;2022-12-18T14:09:10;12.00;;;7.70;;
60582;SDS011;46415;47.536;19.066;2022-12-18T14:14:35;17.90;;;7.62;;
60582;SDS011;46415;47.536;19.066;2022-12-18T14:17:39;9.23;;;6.45;;
60582;SDS011;46415;47.536;19.066;2022-12-18T14:20:43;12.68;;;7.65;;
60582;SDS011;46415;47.536;19.066;2022-12-18T14:27:22;17.15;;;8.13;;
60582;SDS011;46415;47.536;19.066;2022-12-18T14:30:31;15.63;;;9.77;;
60582;SDS011;46415;47.536;19.066;2022-12-18T14:33:37;24.27;;;9.85;;
60582;SDS011;46415;47.536;19.066;2022-12-18T14:36:41;13.85;;;7.72;;
60582;SDS011;46415;47.536;19.066;2022-12-18T14:39:59;17.80;;;8.95;;
60582;SDS011;46415;47.536;19.066;2022-12-18T14:43:12;21.62;;;9.20;;
60582;SDS011;46415;47.536;19.066;2022-12-18T14:49:37;16.65;;;9.70;;
60582;SDS011;46415;47.536;19.066;2022-12-18T14:52:44;15.40;;;9.50;;
60582;SDS011;46415;47.536;19.066;2022-12-18T14:55:47;17.00;;;8.68;;
60582;SDS011;46415;47.536;19.066;2022-12-18T14:58:54;24.50;;;9.10;;
60582;SDS011;46415;47.536;19.066;2022-12-18T15:02:15;20.48;;;8.63;;
60582;SDS011;46415;47.536;19.066;2022-12-18T15:05:28;17.75;;;9.68;;
60582;SDS011;46415;47.536;19.066;2022-12-18T15:08:36;14.85;;;7.72;;
60582;SDS011;46415;47.536;19.066;2022-12-18T15:14:42;13.62;;;7.47;;
60582;SDS011;46415;47.536;19.066;2022-12-18T15:17:44;21.05;;;8.07;;
60582;SDS011;46415;47.536;19.066;2022-12-18T15:20:52;14.93;;;6.85;;
60582;SDS011;46415;47.536;19.066;2022-12-18T15:23:57;15.38;;;8.00;;
60582;SDS011;46415;47.536;19.066;2022-12-18T15:27:00;9.88;;;6.85;;
60582;SDS011;46415;47.536;19.066;2022-12-18T15:30:16;12.10;;;7.32;;
60582;SDS011;46415;47.536;19.066;2022-12-18T15:33:27;17.73;;;8.63;;
60582;SDS011;46415;47.536;19.066;2022-12-18T15:36:33;10.73;;;7.62;;
60582;SDS011;46415;47.536;19.066;2022-12-18T15:39:39;19.42;;;7.72;;
60582;SDS011;46415;47.536;19.066;2022-12-18T15:42:41;10.32;;;5.18;;
60582;SDS011;46415;47.536;19.066;2022-12-18T15:46:05;11.32;;;6.75;;
60582;SDS011;46415;47.536;19.066;2022-12-18T15:49:13;12.13;;;6.68;;
60582;SDS011;46415;47.536;19.066;2022-12-18T15:52:15;11.00;;;6.15;;
60582;SDS011;46415;47.536;19.066;2022-12-18T15:55:28;10.02;;;6.68;;
60582;SDS011;46415;47.536;19.066;2022-12-18T15:58:49;11.10;;;5.60;;
60582;SDS011;46415;47.536;19.066;2022-12-18T16:01:52;12.25;;;5.70;;
60582;SDS011;46415;47.536;19.066;2022-12-18T16:04:55;14.05;;;7.15;;
60582;SDS011;46415;47.536;19.066;2022-12-18T16:07:58;20.35;;;10.07;;
60582;SDS011;46415;47.536;19.066;2022-12-18T16:11:01;14.73;;;9.00;;
60582;SDS011;46415;47.536;19.066;2022-12-18T16:17:23;14.77;;;7.43;;
60582;SDS011;46415;47.536;19.066;2022-12-18T16:20:26;22.90;;;8.82;;
60582;SDS011;46415;47.536;19.066;2022-12-18T16:23:29;13.13;;;7.07;;
60582;SDS011;46415;47.536;19.066;2022-12-18T16:26:31;15.73;;;6.50;;
60582;SDS011;46415;47.536;19.066;2022-12-18T16:29:34;12.35;;;8.60;;
60582;SDS011;46415;47.536;19.066;2022-12-18T16:32:37;14.40;;;7.78;;
60582;SDS011;46415;47.536;19.066;2022-12-18T16:35:39;21.35;;;10.98;;
60582;SDS011;46415;47.536;19.066;2022-12-18T16:38:43;11.32;;;7.80;;
60582;SDS011;46415;47.536;19.066;2022-12-18T16:41:46;16.92;;;8.63;;
60582;SDS011;46415;47.536;19.066;2022-12-18T16:44:49;11.23;;;6.93;;
60582;SDS011;46415;47.536;19.066;2022-12-18T16:47:52;11.23;;;7.68;;
60582;SDS011;46415;47.536;19.066;2022-12-18T16:51:01;10.43;;;5.95;;
60582;SDS011;46415;47.536;19.066;2022-12-18T16:54:07;12.85;;;8.23;;
60582;SDS011;46415;47.536;19.066;2022-12-18T16:57:14;17.62;;;7.62;;
60582;SDS011;46415;47.536;19.066;2022-12-18T17:00:19;20.15;;;8.65;;
60582;SDS011;46415;47.536;19.066;2022-12-18T17:03:23;19.00;;;9.43;;
60582;SDS011;46415;47.536;19.066;2022-12-18T17:06:28;13.93;;;8.35;;
60582;SDS011;46415;47.536;19.066;2022-12-18T17:09:32;12.37;;;7.93;;
60582;SDS011;46415;47.536;19.066;2022-12-18T17:12:35;27.33;;;10.15;;
60582;SDS011;46415;47.536;19.066;2022-12-18T17:15:38;14.52;;;8.73;;
60582;SDS011;46415;47.536;19.066;2022-12-18T17:18:41;16.33;;;9.63;;
60582;SDS011;46415;47.536;19.066;2022-12-18T17:21:44;19.98;;;11.12;;
60582;SDS011;46415;47.536;19.066;2022-12-18T17:24:49;19.75;;;10.20;;
60582;SDS011;46415;47.536;19.066;2022-12-18T17:27:52;17.80;;;8.07;;
60582;SDS011;46415;47.536;19.066;2022-12-18T17:30:55;14.10;;;8.85;;
60582;SDS011;46415;47.536;19.066;2022-12-18T17:33:59;13.82;;;8.40;;
60582;SDS011;46415;47.536;19.066;2022-12-18T17:37:03;17.77;;;9.10;;
60582;SDS011;46415;47.536;19.066;2022-12-18T17:40:06;9.88;;;7.20;;
60582;SDS011;46415;47.536;19.066;2022-12-18T17:43:09;12.95;;;9.40;;
60582;SDS011;46415;47.536;19.066;2022-12-18T17:46:13;9.38;;;7.00;;
60582;SDS011;46415;47.536;19.066;2022-12-18T17:49:16;14.90;;;8.68;;
60582;SDS011;46415;47.536;19.066;2022-12-18T17:52:19;11.23;;;6.78;;
60582;SDS011;46415;47.536;19.066;2022-12-18T17:55:22;26.55;;;10.35;;
60582;SDS011;46415;47.536;19.066;2022-12-18T17:58:24;17.85;;;8.15;;
60582;SDS011;46415;47.536;19.066;2022-12-18T18:01:27;18.05;;;10.55;;
60582;SDS011;46415;47.536;19.066;2022-12-18T18:04:30;16.05;;;8.38;;
60582;SDS011;46415;47.536;19.066;2022-12-18T18:07:33;17.08;;;9.38;;
60582;SDS011;46415;47.536;19.066;2022-12-18T18:10:36;11.93;;;9.73;;
60582;SDS011;46415;47.536;19.066;2022-12-18T18:13:40;17.37;;;8.00;;
60582;SDS011;46415;47.536;19.066;2022-12-18T18:17:02;12.32;;;8.60;;
60582;SDS011;46415;47.536;19.066;2022-12-18T18:20:06;13.00;;;8.80;;
60582;SDS011;46415;47.536;19.066;2022-12-18T18:23:09;16.95;;;10.00;;
60582;SDS011;46415;47.536;19.066;2022-12-18T18:26:12;8.63;;;7.30;;
60582;SDS011;46415;47.536;19.066;2022-12-18T18:29:17;18.25;;;10.52;;
60582;SDS011;46415;47.536;19.066;2022-12-18T18:32:22;16.42;;;10.43;;
60582;SDS011;46415;47.536;19.066;2022-12-18T18:35:25;15.25;;;8.68;;
60582;SDS011;46415;47.536;19.066;2022-12-18T18:38:47;15.85;;;9.80;;
60582;SDS011;46415;47.536;19.066;2022-12-18T18:41:50;12.60;;;8.85;;
60582;SDS011;46415;47.536;19.066;2022-12-18T18:44:53;17.50;;;9.20;;
60582;SDS011;46415;47.536;19.066;2022-12-18T18:47:57;15.73;;;9.98;;
60582;SDS011;46415;47.536;19.066;2022-12-18T18:51:01;10.82;;;8.52;;
60582;SDS011;46415;47.536;19.066;2022-12-18T18:54:08;21.48;;;10.02;;
60582;SDS011;46415;47.536;19.066;2022-12-18T18:57:11;18.48;;;8.23;;
60582;SDS011;46415;47.536;19.066;2022-12-18T19:00:29;17.62;;;9.93;;
60582;SDS011;46415;47.536;19.066;2022-12-18T19:03:32;24.60;;;11.82;;
60582;SDS011;46415;47.536;19.066;2022-12-18T19:06:35;20.85;;;10.73;;
60582;SDS011;46415;47.536;19.066;2022-12-18T19:09:38;15.02;;;10.77;;
60582;SDS011;46415;47.536;19.066;2022-12-18T19:12:41;19.58;;;10.18;;
60582;SDS011;46415;47.536;19.066;2022-12-18T19:16:05;18.05;;;9.02;;
60582;SDS011;46415;47.536;19.066;2022-12-18T19:19:11;22.92;;;11.45;;
60582;SDS011;46415;47.536;19.066;2022-12-18T19:22:14;21.67;;;12.70;;
60582;SDS011;46415;47.536;19.066;2022-12-18T19:25:17;22.13;;;12.70;;
60582;SDS011;46415;47.536;19.066;2022-12-18T19:28:20;14.48;;;10.23;;
60582;SDS011;46415;47.536;19.066;2022-12-18T19:31:27;22.57;;;11.77;;
60582;SDS011;46415;47.536;19.066;2022-12-18T19:34:37;20.60;;;11.48;;
60582;SDS011;46415;47.536;19.066;2022-12-18T19:37:40;21.73;;;10.23;;
60582;SDS011;46415;47.536;19.066;2022-12-18T19:40:44;14.85;;;9.60;;
60582;SDS011;46415;47.536;19.066;2022-12-18T19:43:47;18.02;;;8.57;;